createdAt,value
2018-03-27T00:01:02.297Z,99.90
2018-03-27T00:03:31.906Z,99.90
2018-03-27T00:06:01.717Z,99.90
2018-03-27T00:08:30.793Z,99.90
2018-03-27T00:11:00.615Z,99.90
2018-03-27T00:13:28.995Z,99.90
2018-03-27T00:15:58.004Z,99.90
2018-03-27T00:18:37.126Z,99.90
2018-03-27T00:21:04.663Z,99.90
2018-03-27T00:23:33.053Z,99.90
2018-03-27T00:26:02.382Z,99.90
2018-03-27T00:28:41.817Z,99.90
2018-03-27T00:31:22.531Z,99.90
2018-03-27T00:34:03.835Z,99.90
2018-03-27T00:36:43.358Z,99.90
2018-03-27T00:39:32.994Z,99.90
2018-03-27T00:45:02.714Z,99.90
2018-03-27T00:47:31.495Z,99.90
2018-03-27T00:49:59.008Z,99.90
2018-03-27T00:52:26.533Z,99.90
2018-03-27T00:54:54.110Z,99.90
2018-03-27T00:57:22.766Z,99.90
2018-03-27T00:59:51.052Z,99.90
2018-03-27T01:02:20.062Z,99.90
2018-03-27T01:04:50.290Z,99.90
2018-03-27T01:07:20.640Z,99.90
2018-03-27T01:09:50.358Z,99.90
2018-03-27T01:12:21.188Z,99.90
2018-03-27T01:14:51.306Z,99.90
2018-03-27T01:17:20.699Z,99.90
2018-03-27T01:19:49.875Z,99.90
2018-03-27T01:22:20.095Z,99.90
2018-03-27T01:24:51.548Z,99.90
2018-03-27T01:27:20.065Z,99.90
2018-03-27T01:29:49.297Z,99.90
2018-03-27T01:32:19.334Z,99.90
2018-03-27T01:34:49.881Z,99.90
2018-03-27T01:37:20.202Z,99.90
2018-03-27T01:39:49.608Z,99.90
2018-03-27T01:42:19.994Z,99.90
2018-03-27T01:44:52.322Z,99.90
2018-03-27T01:47:22.656Z,99.90
2018-03-27T01:49:51.939Z,99.90
2018-03-27T01:52:20.673Z,99.90
2018-03-27T01:54:50.414Z,99.90
2018-03-27T01:57:20.610Z,99.90
2018-03-27T01:59:49.482Z,99.90
2018-03-27T02:02:20.538Z,99.90
2018-03-27T02:04:50.070Z,99.90
2018-03-27T02:07:20.122Z,99.90
2018-03-27T02:09:50.185Z,99.90
2018-03-27T02:12:24.617Z,99.90
2018-03-27T02:14:57.798Z,99.90
2018-03-27T02:17:31.159Z,99.90
2018-03-27T02:20:04.426Z,99.90
2018-03-27T02:22:34.545Z,99.90
2018-03-27T02:25:02.051Z,99.90
2018-03-27T02:27:29.573Z,99.90
2018-03-27T02:29:57.850Z,99.90
2018-03-27T02:32:25.707Z,99.90
2018-03-27T02:35:03.927Z,99.90
2018-03-27T02:37:32.223Z,99.90
2018-03-27T02:40:00.493Z,99.90
2018-03-27T02:42:28.098Z,99.90
2018-03-27T02:44:56.667Z,99.90
2018-03-27T02:47:25.819Z,99.90
2018-03-27T02:49:53.892Z,99.90
2018-03-27T02:52:23.568Z,99.90
2018-03-27T02:55:02.111Z,99.90
2018-03-27T02:57:30.422Z,99.90
2018-03-27T02:59:57.998Z,99.90
2018-03-27T03:02:26.391Z,99.90
2018-03-27T03:04:54.681Z,99.90
2018-03-27T03:07:23.399Z,99.90
2018-03-27T03:09:52.235Z,99.90
2018-03-27T03:12:22.750Z,99.90
2018-03-27T03:14:53.462Z,99.90
2018-03-27T03:17:25.457Z,99.90
2018-03-27T03:20:03.403Z,99.90
2018-03-27T03:22:31.035Z,99.90
2018-03-27T03:24:58.615Z,99.90
2018-03-27T03:27:26.890Z,99.90
2018-03-27T03:29:55.978Z,99.90
2018-03-27T03:32:25.078Z,99.90
2018-03-27T03:34:53.488Z,99.90
2018-03-27T03:37:22.845Z,99.90
2018-03-27T03:40:02.234Z,99.90
2018-03-27T03:42:29.887Z,99.90
2018-03-27T03:44:57.417Z,99.90
2018-03-27T03:47:26.128Z,99.90
2018-03-27T03:49:55.546Z,99.90
2018-03-27T03:52:24.858Z,99.90
2018-03-27T03:54:55.336Z,99.90
2018-03-27T03:57:24.680Z,99.90
2018-03-27T04:00:02.949Z,99.90
2018-03-27T04:02:30.454Z,99.90
2018-03-27T04:04:57.974Z,99.90
2018-03-27T04:07:26.266Z,99.90
2018-03-27T04:09:55.945Z,99.90
2018-03-27T04:12:25.158Z,99.90
2018-03-27T04:14:54.461Z,99.90
2018-03-27T04:17:24.843Z,99.90
2018-03-27T04:19:54.582Z,99.90
2018-03-27T04:22:24.195Z,99.90
2018-03-27T04:25:03.597Z,99.90
2018-03-27T04:27:31.110Z,99.90
2018-03-27T04:29:58.662Z,99.90
2018-03-27T04:32:26.933Z,99.90
2018-03-27T04:34:56.106Z,99.90
2018-03-27T04:37:25.208Z,99.90
2018-03-27T04:39:54.512Z,99.90
2018-03-27T04:42:23.235Z,99.90
2018-03-27T04:45:03.362Z,99.90
2018-03-27T04:47:31.652Z,99.90
2018-03-27T04:49:59.177Z,99.90
2018-03-27T04:52:26.698Z,99.90
2018-03-27T04:54:55.485Z,99.90
2018-03-27T04:57:25.514Z,99.90
2018-03-27T04:59:54.058Z,99.90
2018-03-27T05:02:23.543Z,99.90
2018-03-27T05:04:54.073Z,99.90
2018-03-27T05:07:24.059Z,99.90
2018-03-27T05:09:52.534Z,99.90
2018-03-27T05:12:22.048Z,99.90
2018-03-27T05:14:50.894Z,99.90
2018-03-27T05:17:31.142Z,99.90
2018-03-27T05:19:58.636Z,99.90
2018-03-27T05:22:27.379Z,99.90
2018-03-27T05:24:55.250Z,99.90
2018-03-27T05:27:23.929Z,99.90
2018-03-27T05:29:53.727Z,99.90
2018-03-27T05:32:22.889Z,99.90
2018-03-27T05:34:52.189Z,99.90
2018-03-27T05:37:21.886Z,99.90
2018-03-27T05:39:50.898Z,99.90
2018-03-27T05:42:23.325Z,99.90
2018-03-27T05:44:54.096Z,99.90
2018-03-27T05:47:24.597Z,99.90
2018-03-27T05:49:53.120Z,99.90
2018-03-27T05:52:31.734Z,99.90
2018-03-27T05:54:59.304Z,99.90
2018-03-27T05:57:27.154Z,99.90
2018-03-27T06:00:05.886Z,99.90
2018-03-27T06:02:33.471Z,99.90
2018-03-27T06:05:01.762Z,99.90
2018-03-27T06:07:30.068Z,99.90
2018-03-27T06:09:57.635Z,99.90
2018-03-27T06:12:25.422Z,99.90
2018-03-27T06:14:53.453Z,99.90
2018-03-27T06:17:24.112Z,99.90
2018-03-27T06:19:52.644Z,99.90
2018-03-27T06:22:21.299Z,99.90
2018-03-27T06:24:52.964Z,99.90
2018-03-27T06:27:30.893Z,99.90
2018-03-27T06:30:04.930Z,99.90
2018-03-27T06:32:33.213Z,99.90
2018-03-27T06:35:01.483Z,99.90
2018-03-27T06:37:29.078Z,99.90
2018-03-27T06:39:57.526Z,99.90
2018-03-27T06:42:25.590Z,99.90
2018-03-27T06:44:54.500Z,99.90
2018-03-27T06:47:23.251Z,99.90
2018-03-27T06:49:52.291Z,99.90
2018-03-27T06:52:33.009Z,99.90
2018-03-27T06:55:00.535Z,99.90
2018-03-27T06:57:28.033Z,99.90
2018-03-27T06:59:56.301Z,99.90
2018-03-27T07:02:24.232Z,99.90
2018-03-27T07:04:54.177Z,99.90
2018-03-27T07:07:22.300Z,99.90
2018-03-27T07:09:53.270Z,99.90
2018-03-27T07:12:22.208Z,99.90
2018-03-27T07:14:52.898Z,99.90
2018-03-27T07:17:23.741Z,99.90
2018-03-27T07:20:02.387Z,99.90
2018-03-27T07:22:30.637Z,99.90
2018-03-27T07:24:58.176Z,99.90
2018-03-27T07:27:26.286Z,99.90
2018-03-27T07:29:54.218Z,99.90
2018-03-27T07:32:33.265Z,99.90
2018-03-27T07:35:00.810Z,99.90
2018-03-27T07:37:28.317Z,99.90
2018-03-27T07:39:55.835Z,99.90
2018-03-27T07:42:33.286Z,99.90
2018-03-27T07:45:00.810Z,99.90
2018-03-27T07:47:29.082Z,99.90
2018-03-27T07:49:56.785Z,99.40
2018-03-27T07:52:25.073Z,99.20
2018-03-27T07:54:53.357Z,99.10
2018-03-27T07:57:32.250Z,99.00
2018-03-27T07:59:59.874Z,99.00
2018-03-27T08:02:28.186Z,99.90
2018-03-27T08:04:55.954Z,99.90
2018-03-27T08:07:24.423Z,99.90
2018-03-27T08:09:53.360Z,99.90
2018-03-27T08:12:21.144Z,99.90
2018-03-27T08:14:59.181Z,99.90
2018-03-27T08:17:27.998Z,99.90
2018-03-27T08:19:56.048Z,99.90
2018-03-27T08:22:23.641Z,99.90
2018-03-27T08:24:52.159Z,99.90
2018-03-27T08:27:20.681Z,99.90
2018-03-27T08:29:48.751Z,99.90
2018-03-27T08:32:17.199Z,99.90
2018-03-27T08:34:46.121Z,99.90
2018-03-27T08:37:13.870Z,99.90
2018-03-27T08:39:41.378Z,99.90
2018-03-27T08:42:08.996Z,99.90
2018-03-27T08:44:36.529Z,99.90
2018-03-27T08:47:04.053Z,99.90
2018-03-27T08:49:31.725Z,99.90
2018-03-27T08:51:59.282Z,99.90
2018-03-27T08:54:27.545Z,99.90
2018-03-27T08:56:56.488Z,99.90
2018-03-27T08:59:24.171Z,99.90
2018-03-27T09:01:53.375Z,99.90
2018-03-27T09:04:21.527Z,99.90
2018-03-27T09:06:51.127Z,94.50
2018-03-27T09:09:27.281Z,94.50
2018-03-27T09:11:54.914Z,96.50
2018-03-27T09:14:24.464Z,96.50
2018-03-27T09:16:52.925Z,95.00
2018-03-27T09:19:21.241Z,95.00
2018-03-27T09:21:51.835Z,93.20
2018-03-27T09:24:21.159Z,93.90
2018-03-27T09:26:50.357Z,95.50
2018-03-27T09:29:19.253Z,96.40
2018-03-27T09:31:49.868Z,95.70
2018-03-27T09:34:19.002Z,94.80
2018-03-27T09:36:47.680Z,94.80
2018-03-27T09:39:15.312Z,94.90
2018-03-27T09:41:43.471Z,97.00
2018-03-27T09:44:13.042Z,94.90
2018-03-27T09:46:40.751Z,94.80
2018-03-27T09:49:21.802Z,95.00
2018-03-27T09:51:51.348Z,94.80
2018-03-27T09:54:21.500Z,95.80
2018-03-27T09:57:00.000Z,94.10
2018-03-27T09:59:28.286Z,94.10
2018-03-27T10:01:57.266Z,93.70
2018-03-27T10:04:26.416Z,93.80
2018-03-27T10:06:53.995Z,93.80
2018-03-27T10:09:25.583Z,92.10
2018-03-27T10:11:54.006Z,92.10
2018-03-27T10:14:23.065Z,91.30
2018-03-27T10:16:51.109Z,91.30
2018-03-27T10:19:22.317Z,91.30
2018-03-27T10:21:51.898Z,91.40
2018-03-27T10:24:22.221Z,91.40
2018-03-27T10:26:52.558Z,91.20
2018-03-27T10:29:23.090Z,91.20
2018-03-27T10:31:52.472Z,90.00
2018-03-27T10:34:21.929Z,89.80
2018-03-27T10:36:51.978Z,85.10
2018-03-27T10:39:20.742Z,85.10
2018-03-27T10:41:50.365Z,84.70
2018-03-27T10:44:19.366Z,84.80
2018-03-27T10:46:48.372Z,81.00
2018-03-27T10:49:19.102Z,80.30
2018-03-27T10:51:47.697Z,76.80
2018-03-27T10:54:15.247Z,76.70
2018-03-27T10:56:43.618Z,78.10
2018-03-27T10:59:11.493Z,75.30
2018-03-27T11:01:39.164Z,78.10
2018-03-27T11:04:06.678Z,76.00
2018-03-27T11:06:34.199Z,73.70
2018-03-27T11:09:01.702Z,73.60
2018-03-27T11:11:29.277Z,74.90
2018-03-27T11:13:57.509Z,77.50
2018-03-27T11:16:27.755Z,76.60
2018-03-27T11:18:56.672Z,78.00
2018-03-27T11:21:25.489Z,79.00
2018-03-27T11:23:54.288Z,79.00
2018-03-27T11:26:33.469Z,77.60
2018-03-27T11:29:00.970Z,78.40
2018-03-27T11:31:29.257Z,80.40
2018-03-27T11:33:57.389Z,80.30
2018-03-27T11:36:25.449Z,79.40
2018-03-27T11:38:53.858Z,78.50
2018-03-27T11:41:23.495Z,78.70
2018-03-27T11:43:53.338Z,78.90
2018-03-27T11:46:33.188Z,80.00
2018-03-27T11:49:00.682Z,80.00
2018-03-27T11:51:28.282Z,81.80
2018-03-27T11:53:56.432Z,81.90
2018-03-27T11:56:25.098Z,81.60
2018-03-27T11:59:02.942Z,82.40
2018-03-27T12:01:30.450Z,83.00
2018-03-27T12:03:57.981Z,82.90
2018-03-27T12:06:26.603Z,83.80
2018-03-27T12:08:54.828Z,83.30
2018-03-27T12:11:24.079Z,85.00
2018-03-27T12:13:54.408Z,85.30
2018-03-27T12:16:25.638Z,85.30
2018-03-27T12:18:54.951Z,86.30
2018-03-27T12:21:23.431Z,87.00
2018-03-27T12:24:02.826Z,87.90
2018-03-27T12:26:30.341Z,86.70
2018-03-27T12:28:58.171Z,87.00
2018-03-27T12:31:27.959Z,87.20
2018-03-27T12:34:07.290Z,85.50
2018-03-27T12:36:35.586Z,85.80
2018-03-27T12:39:03.870Z,85.60
2018-03-27T12:41:32.134Z,86.70
2018-03-27T12:43:59.733Z,86.60
2018-03-27T12:46:28.505Z,87.30
2018-03-27T12:48:57.615Z,87.30
2018-03-27T12:51:27.182Z,87.50
2018-03-27T12:53:57.516Z,87.90
2018-03-27T12:56:28.506Z,87.30
2018-03-27T12:58:57.591Z,87.30
2018-03-27T13:01:27.802Z,86.20
2018-03-27T13:03:57.565Z,87.30
2018-03-27T13:06:37.125Z,87.30
2018-03-27T13:09:04.647Z,87.60
2018-03-27T13:11:32.935Z,91.40
2018-03-27T13:14:01.340Z,92.80
2018-03-27T13:16:29.021Z,92.80
2018-03-27T13:18:58.265Z,93.50
2018-03-27T13:21:27.648Z,95.00
2018-03-27T13:23:57.504Z,99.90
2018-03-27T13:26:27.200Z,99.90
2018-03-27T13:28:57.574Z,99.90
2018-03-27T13:31:28.017Z,99.90
2018-03-27T13:33:58.175Z,99.90
2018-03-27T13:36:36.533Z,99.90
2018-03-27T13:39:04.060Z,99.90
2018-03-27T13:41:31.654Z,99.90
2018-03-27T13:43:59.778Z,99.90
2018-03-27T13:46:29.261Z,99.90
2018-03-27T13:48:58.429Z,99.90
2018-03-27T13:51:36.266Z,99.90
2018-03-27T13:54:03.856Z,99.90
2018-03-27T13:56:31.429Z,99.90
2018-03-27T13:58:59.750Z,99.90
2018-03-27T14:01:29.037Z,99.90
2018-03-27T14:03:59.634Z,99.90
2018-03-27T14:06:39.082Z,99.90
2018-03-27T14:09:06.581Z,99.90
2018-03-27T14:11:34.096Z,99.90
2018-03-27T14:14:01.640Z,99.90
2018-03-27T14:16:29.455Z,99.90
2018-03-27T14:18:59.197Z,99.90
2018-03-27T14:21:29.094Z,99.90
2018-03-27T14:24:09.622Z,99.90
2018-03-27T14:26:37.153Z,99.90
2018-03-27T14:29:04.696Z,99.90
2018-03-27T14:31:32.221Z,99.90
2018-03-27T14:33:59.726Z,99.90
2018-03-27T14:36:28.645Z,99.90
2018-03-27T14:38:58.827Z,99.90
2018-03-27T14:41:28.594Z,99.90
2018-03-27T14:43:59.049Z,99.90
2018-03-27T14:46:29.230Z,99.90
2018-03-27T14:48:59.242Z,99.90
2018-03-27T14:51:28.677Z,99.90
2018-03-27T14:53:58.564Z,99.90
2018-03-27T14:56:29.389Z,99.90
2018-03-27T14:58:59.790Z,99.90
2018-03-27T15:01:28.743Z,99.90
2018-03-27T15:03:58.644Z,99.90
2018-03-27T15:06:28.010Z,99.90
2018-03-27T15:08:57.574Z,99.90
2018-03-27T15:11:27.137Z,99.90
2018-03-27T15:13:57.289Z,99.90
2018-03-27T15:16:27.418Z,99.90
2018-03-27T15:18:58.852Z,99.90
2018-03-27T15:21:28.073Z,99.90
2018-03-27T15:23:58.109Z,99.90
2018-03-27T15:26:37.917Z,99.90
2018-03-27T15:29:05.430Z,99.90
2018-03-27T15:31:32.987Z,99.90
2018-03-27T15:34:01.369Z,99.90
2018-03-27T15:36:29.663Z,99.90
2018-03-27T15:38:59.477Z,99.90
2018-03-27T15:41:28.661Z,99.90
2018-03-27T15:43:59.587Z,99.90
2018-03-27T15:46:28.575Z,99.90
2018-03-27T15:48:58.273Z,99.90
2018-03-27T15:51:28.099Z,99.90
2018-03-27T15:53:58.708Z,99.90
2018-03-27T15:56:28.698Z,99.90
2018-03-27T15:58:58.630Z,99.90
2018-03-27T16:01:28.626Z,99.90
2018-03-27T16:03:58.657Z,99.90
2018-03-27T16:06:31.283Z,99.90
2018-03-27T16:09:02.010Z,99.90
2018-03-27T16:11:33.126Z,99.90
2018-03-27T16:14:04.690Z,99.90
2018-03-27T16:16:34.978Z,99.90
2018-03-27T16:19:04.676Z,99.90
2018-03-27T16:21:35.546Z,99.90
2018-03-27T16:24:04.658Z,99.90
2018-03-27T16:26:34.240Z,99.90
2018-03-27T16:29:03.956Z,99.90
2018-03-27T16:31:34.538Z,99.90
2018-03-27T16:34:04.378Z,99.90
2018-03-27T16:36:34.669Z,99.90
2018-03-27T16:39:04.338Z,99.90
2018-03-27T16:41:35.141Z,99.90
2018-03-27T16:44:05.810Z,99.90
2018-03-27T16:46:35.777Z,99.90
2018-03-27T16:49:04.437Z,99.90
2018-03-27T16:51:35.230Z,99.90
2018-03-27T16:54:04.508Z,99.90
2018-03-27T16:56:34.702Z,99.90
2018-03-27T16:59:03.035Z,99.90
2018-03-27T17:01:32.285Z,99.90
2018-03-27T17:04:02.866Z,99.90
2018-03-27T17:06:32.570Z,99.90
2018-03-27T17:09:00.852Z,99.90
2018-03-27T17:11:30.808Z,99.90
2018-03-27T17:14:00.375Z,99.90
2018-03-27T17:16:29.738Z,99.90
2018-03-27T17:19:08.854Z,99.90
2018-03-27T17:21:37.137Z,99.90
2018-03-27T17:24:04.633Z,99.90
2018-03-27T17:26:42.422Z,99.90
2018-03-27T17:29:10.034Z,99.90
2018-03-27T17:31:38.426Z,99.90
2018-03-27T17:34:06.722Z,99.90
2018-03-27T17:36:35.009Z,99.90
2018-03-27T17:39:03.717Z,99.90
2018-03-27T17:41:42.008Z,99.90
2018-03-27T17:44:09.510Z,99.90
2018-03-27T17:46:37.022Z,99.90
2018-03-27T17:49:04.529Z,99.90
2018-03-27T17:51:32.702Z,99.90
2018-03-27T17:54:02.681Z,99.90
2018-03-27T17:56:31.990Z,99.90
2018-03-27T17:59:01.518Z,99.90
2018-03-27T18:01:31.160Z,99.90
2018-03-27T18:04:01.303Z,99.90
2018-03-27T18:06:30.625Z,99.90
2018-03-27T18:09:09.989Z,99.90
2018-03-27T18:11:37.518Z,99.90
2018-03-27T18:14:05.025Z,99.90
2018-03-27T18:16:32.739Z,99.90
2018-03-27T18:19:01.271Z,99.90
2018-03-27T18:21:31.115Z,99.90
2018-03-27T18:24:00.425Z,99.90
2018-03-27T18:26:29.112Z,99.90
2018-03-27T18:28:58.692Z,99.90
2018-03-27T18:31:27.974Z,99.90
2018-03-27T18:33:57.165Z,99.90
2018-03-27T18:36:26.849Z,99.90
2018-03-27T18:38:57.122Z,99.90
2018-03-27T18:41:26.803Z,99.90
2018-03-27T18:43:54.876Z,99.90
2018-03-27T18:46:22.578Z,99.90
2018-03-27T18:48:50.115Z,99.90
2018-03-27T18:51:17.946Z,99.90
2018-03-27T18:53:46.186Z,99.90
2018-03-27T18:56:13.750Z,99.90
2018-03-27T18:58:42.142Z,99.90
2018-03-27T19:01:10.410Z,99.90
2018-03-27T19:03:37.930Z,99.90
2018-03-27T19:06:06.154Z,99.90
2018-03-27T19:08:33.671Z,99.90
2018-03-27T19:11:01.279Z,99.90
2018-03-27T19:13:29.166Z,99.90
2018-03-27T19:15:58.986Z,99.90
2018-03-27T19:18:29.078Z,99.90
2018-03-27T19:20:58.660Z,99.90
2018-03-27T19:23:26.694Z,99.90
2018-03-27T19:25:54.687Z,99.90
2018-03-27T19:28:22.221Z,99.90
2018-03-27T19:30:50.639Z,99.90
2018-03-27T19:33:18.289Z,99.90
2018-03-27T19:35:46.561Z,99.90
2018-03-27T19:38:14.087Z,99.90
2018-03-27T19:40:41.607Z,99.90
2018-03-27T19:43:09.200Z,99.90
2018-03-27T19:45:37.484Z,99.90
2018-03-27T19:48:05.789Z,99.90
2018-03-27T19:50:33.301Z,99.90
2018-03-27T19:53:00.827Z,99.90
2018-03-27T19:55:28.543Z,99.90
2018-03-27T19:57:57.687Z,99.90
2018-03-27T20:00:26.557Z,99.90
2018-03-27T20:02:55.459Z,99.90
2018-03-27T20:05:23.544Z,99.90
2018-03-27T20:07:51.885Z,99.90
2018-03-27T20:10:20.174Z,99.90
2018-03-27T20:12:48.497Z,99.90
2018-03-27T20:15:16.068Z,99.90
2018-03-27T20:17:44.306Z,99.90
2018-03-27T20:20:12.035Z,99.90
2018-03-27T20:22:39.542Z,99.90
2018-03-27T20:25:07.058Z,99.90
2018-03-27T20:27:34.568Z,99.90
2018-03-27T20:30:02.090Z,99.90
2018-03-27T20:32:31.284Z,99.90
2018-03-27T20:34:59.446Z,99.90
2018-03-27T20:37:27.147Z,99.90
2018-03-27T20:39:54.731Z,99.90
2018-03-27T20:42:22.315Z,99.90
2018-03-27T20:44:49.854Z,99.90
2018-03-27T20:47:17.782Z,99.90
2018-03-27T20:49:45.428Z,99.90
2018-03-27T20:52:13.293Z,99.90
2018-03-27T20:54:40.857Z,99.90
2018-03-27T20:57:08.381Z,99.90
2018-03-27T20:59:35.926Z,99.90
2018-03-27T21:02:04.205Z,99.90
2018-03-27T21:04:32.474Z,99.90
2018-03-27T21:07:00.473Z,99.90
2018-03-27T21:09:28.078Z,99.90
2018-03-27T21:11:56.267Z,99.90
2018-03-27T21:14:24.042Z,99.90
2018-03-27T21:16:51.594Z,99.90
2018-03-27T21:19:19.866Z,99.90
2018-03-27T21:21:48.210Z,99.90
2018-03-27T21:24:15.806Z,99.90
2018-03-27T21:26:43.559Z,99.90
2018-03-27T21:29:11.094Z,99.90
2018-03-27T21:31:39.388Z,99.90
2018-03-27T21:34:06.889Z,99.90
2018-03-27T21:36:34.409Z,99.90
2018-03-27T21:39:01.998Z,99.90
2018-03-27T21:41:29.602Z,99.90
2018-03-27T21:43:57.909Z,99.90
2018-03-27T21:46:27.209Z,99.90
2018-03-27T21:48:57.863Z,99.90
2018-03-27T21:51:26.236Z,99.90
2018-03-27T21:53:54.222Z,99.90
2018-03-27T21:56:21.870Z,99.90
2018-03-27T21:58:50.150Z,99.90
2018-03-27T22:01:19.489Z,99.90
2018-03-27T22:03:47.041Z,99.90
2018-03-27T22:06:15.993Z,99.90
2018-03-27T22:08:44.480Z,99.90
2018-03-27T22:11:12.014Z,99.90
2018-03-27T22:13:40.403Z,99.90
2018-03-27T22:16:08.665Z,99.90
2018-03-27T22:18:36.181Z,99.90
2018-03-27T22:21:03.739Z,99.90
2018-03-27T22:23:32.571Z,99.90
2018-03-27T22:26:01.072Z,99.90
2018-03-27T22:28:30.648Z,99.90
2018-03-27T22:31:00.126Z,99.90
2018-03-27T22:33:30.625Z,99.90
2018-03-27T22:36:00.255Z,99.90
2018-03-27T22:38:30.675Z,99.90
2018-03-27T22:41:01.575Z,99.90
2018-03-27T22:43:32.297Z,99.90
2018-03-27T22:46:02.596Z,99.90
2018-03-27T22:48:32.147Z,99.90
2018-03-27T22:51:02.730Z,99.90
2018-03-27T22:53:32.267Z,99.90
2018-03-27T22:56:10.983Z,99.90
2018-03-27T22:58:38.595Z,99.90
2018-03-27T23:01:06.920Z,99.90
2018-03-27T23:03:35.022Z,99.90
2018-03-27T23:06:04.938Z,99.90
2018-03-27T23:08:34.939Z,99.90
2018-03-27T23:11:12.577Z,99.90
2018-03-27T23:13:40.097Z,99.90
2018-03-27T23:16:08.371Z,99.90
2018-03-27T23:18:35.879Z,99.90
2018-03-27T23:21:04.342Z,99.90
2018-03-27T23:23:34.997Z,99.90
2018-03-27T23:26:03.921Z,99.90
2018-03-27T23:28:34.007Z,99.90
2018-03-27T23:31:03.149Z,99.90
2018-03-27T23:33:41.921Z,99.90
2018-03-27T23:36:09.442Z,99.90
2018-03-27T23:38:36.938Z,99.90
2018-03-27T23:41:05.305Z,99.90
2018-03-27T23:43:34.625Z,99.90
2018-03-27T23:46:04.244Z,99.90
2018-03-27T23:48:33.702Z,99.90
2018-03-27T23:51:04.182Z,99.90
2018-03-27T23:53:34.926Z,99.90
2018-03-27T23:56:03.502Z,99.90
2018-03-27T23:58:32.510Z,99.90
